Time;durP1;ratioP1;P1;durP2;ratioP2;P2;SDS_P1;SDS_P2;PMS_P1;PMS_P2;Temp;Humidity;BMP_temperature;BMP_pressure;BME280_temperature;BME280_humidity;BME280_pressure;Samples;Min_cycle;Max_cycle;Signal;HPM_P1;HPM_P2
2022/11/25 00:02:16;;;;;;;12.65;4.15;;;;;;;;;;5032164;28;20017;-68
2022/11/25 00:04:42;;;;;;;10.73;4.75;;;;;;;;;;5045788;28;20044;-68
2022/11/25 00:07:07;;;;;;;12.63;5.00;;;;;;;;;;5040452;28;20017;-68
2022/11/25 00:09:32;;;;;;;14.85;4.90;;;;;;;;;;5032550;28;20272;-68
2022/11/25 00:11:57;;;;;;;14.50;5.45;;;;;;;;;;5031349;28;20018;-67
2022/11/25 00:14:23;;;;;;;15.73;4.13;;;;;;;;;;5036477;28;20078;-68
2022/11/25 00:16:48;;;;;;;15.17;4.40;;;;;;;;;;5051450;28;20306;-68
2022/11/25 00:19:13;;;;;;;10.23;3.70;;;;;;;;;;5051364;28;20272;-68
2022/11/25 00:21:38;;;;;;;21.47;5.17;;;;;;;;;;5041667;28;20272;-68
2022/11/25 00:24:04;;;;;;;14.90;4.63;;;;;;;;;;5034557;28;20374;-68
2022/11/25 00:26:31;;;;;;;14.48;5.03;;;;;;;;;;5035736;28;20450;-69
2022/11/25 00:28:57;;;;;;;14.20;4.55;;;;;;;;;;5049097;28;20368;-68
2022/11/25 00:31:24;;;;;;;14.52;4.45;;;;;;;;;;5046358;28;20028;-68
2022/11/25 00:33:49;;;;;;;16.23;5.53;;;;;;;;;;5040348;28;20020;-69
2022/11/25 00:36:20;;;;;;;10.43;4.50;;;;;;;;;;5036608;28;20013;-68
2022/11/25 00:38:46;;;;;;;13.68;5.05;;;;;;;;;;5052273;28;20150;-69
2022/11/25 00:46:39;;;;;;;18.60;4.40;;;;;;;;;;5035792;28;20055;-69
2022/11/25 00:49:05;;;;;;;12.00;4.32;;;;;;;;;;5035044;28;20096;-69
2022/11/25 00:51:30;;;;;;;8.32;3.30;;;;;;;;;;5035618;28;20540;-69
2022/11/25 00:53:55;;;;;;;13.07;4.15;;;;;;;;;;5045192;28;20100;-69
2022/11/25 00:56:22;;;;;;;16.55;4.50;;;;;;;;;;5041869;28;20087;-69
2022/11/25 00:58:47;;;;;;;9.38;4.18;;;;;;;;;;5036569;28;20026;-69
2022/11/25 01:01:12;;;;;;;12.93;5.00;;;;;;;;;;5049969;28;20013;-69
2022/11/25 01:03:38;;;;;;;22.73;4.03;;;;;;;;;;5030293;28;20080;-70
2022/11/25 01:06:04;;;;;;;11.35;3.58;;;;;;;;;;5004963;28;20021;-70
2022/11/25 01:08:30;;;;;;;7.93;3.72;;;;;;;;;;5037899;28;20506;-69
2022/11/25 01:10:59;;;;;;;13.45;4.55;;;;;;;;;;5049615;28;20029;-68
2022/11/25 01:13:24;;;;;;;12.45;4.10;;;;;;;;;;5048875;28;20044;-69
2022/11/25 01:15:49;;;;;;;12.55;4.10;;;;;;;;;;5042258;28;20443;-68
2022/11/25 01:18:14;;;;;;;9.93;3.97;;;;;;;;;;5040344;28;20009;-69
2022/11/25 01:20:40;;;;;;;16.53;4.63;;;;;;;;;;5041850;28;20527;-68
2022/11/25 01:23:05;;;;;;;12.60;4.50;;;;;;;;;;5040605;28;20773;-69
2022/11/25 01:25:30;;;;;;;10.20;3.63;;;;;;;;;;5041830;28;20688;-70
2022/11/25 01:27:55;;;;;;;15.30;4.73;;;;;;;;;;5040209;28;20651;-69
2022/11/25 01:30:20;;;;;;;8.67;3.40;;;;;;;;;;5056666;28;20693;-69
2022/11/25 01:32:46;;;;;;;11.90;3.87;;;;;;;;;;5047237;28;20630;-69
2022/11/25 01:35:11;;;;;;;8.38;3.60;;;;;;;;;;5033786;28;20638;-68
2022/11/25 01:37:36;;;;;;;14.70;4.70;;;;;;;;;;5048439;28;20056;-69
2022/11/25 01:40:02;;;;;;;20.83;4.10;;;;;;;;;;5036945;28;20267;-69
2022/11/25 01:42:29;;;;;;;16.25;5.10;;;;;;;;;;5053875;28;20064;-69
2022/11/25 01:45:12;;;;;;;14.32;4.47;;;;;;;;;;5039432;28;20373;-69
2022/11/25 01:47:38;;;;;;;15.05;4.13;;;;;;;;;;5034995;28;20025;-69
2022/11/25 01:50:05;;;;;;;10.48;4.03;;;;;;;;;;5035640;28;20021;-69
2022/11/25 01:52:37;;;;;;;14.55;4.97;;;;;;;;;;5034946;28;20041;-70
2022/11/25 01:55:05;;;;;;;14.57;3.83;;;;;;;;;;5040446;28;20016;-69
2022/11/25 01:57:35;;;;;;;15.07;4.50;;;;;;;;;;5042019;28;20033;-69
2022/11/25 02:00:02;;;;;;;9.75;3.97;;;;;;;;;;5036824;28;20051;-69
2022/11/25 02:02:28;;;;;;;11.57;3.63;;;;;;;;;;5036355;28;20569;-69
2022/11/25 02:04:54;;;;;;;19.50;4.82;;;;;;;;;;5041781;28;20041;-69
2022/11/25 02:07:35;;;;;;;8.02;3.22;;;;;;;;;;5041764;28;20036;-69
2022/11/25 02:10:01;;;;;;;11.43;4.07;;;;;;;;;;5036032;28;20040;-68
2022/11/25 02:12:27;;;;;;;11.60;4.20;;;;;;;;;;5038708;28;20036;-69
2022/11/25 02:14:53;;;;;;;7.03;3.20;;;;;;;;;;5042756;28;20375;-68
2022/11/25 02:17:19;;;;;;;9.98;4.22;;;;;;;;;;5051141;28;20017;-68
2022/11/25 02:20:03;;;;;;;13.65;3.75;;;;;;;;;;5053152;28;20028;-69
2022/11/25 02:22:47;;;;;;;10.98;3.67;;;;;;;;;;5051027;28;20105;-69
2022/11/25 02:25:19;;;;;;;9.55;4.05;;;;;;;;;;5048029;28;20025;-69
2022/11/25 02:27:46;;;;;;;14.10;4.25;;;;;;;;;;5036119;28;20029;-69
2022/11/25 02:30:12;;;;;;;13.27;3.65;;;;;;;;;;5039737;28;20025;-68
2022/11/25 02:32:41;;;;;;;12.80;4.05;;;;;;;;;;5065248;28;20032;-68
2022/11/25 02:35:27;;;;;;;11.18;3.80;;;;;;;;;;5046298;28;20576;-68
2022/11/25 02:37:54;;;;;;;9.85;4.18;;;;;;;;;;5027061;28;20883;-68
2022/11/25 02:40:19;;;;;;;12.55;3.63;;;;;;;;;;5050914;28;20013;-68
2022/11/25 02:42:45;;;;;;;12.27;3.90;;;;;;;;;;5041398;28;20403;-68
2022/11/25 02:45:12;;;;;;;11.65;3.75;;;;;;;;;;5033238;28;20025;-68
2022/11/25 02:47:37;;;;;;;20.30;3.92;;;;;;;;;;5048118;28;20017;-67
2022/11/25 02:50:03;;;;;;;14.80;4.60;;;;;;;;;;5033726;28;20495;-67
2022/11/25 02:52:28;;;;;;;9.35;3.85;;;;;;;;;;5051849;28;20267;-66
2022/11/25 02:54:53;;;;;;;19.80;4.73;;;;;;;;;;5051770;28;20151;-65
2022/11/25 02:57:19;;;;;;;12.05;4.07;;;;;;;;;;5051852;28;20295;-64
2022/11/25 02:59:44;;;;;;;17.37;5.77;;;;;;;;;;5052235;28;20395;-64
2022/11/25 03:02:09;;;;;;;16.13;5.43;;;;;;;;;;5037320;28;20359;-64
2022/11/25 03:04:35;;;;;;;11.20;3.45;;;;;;;;;;5037617;28;20060;-65
2022/11/25 03:07:02;;;;;;;9.70;3.28;;;;;;;;;;5048991;28;20540;-64
2022/11/25 03:09:27;;;;;;;10.57;3.45;;;;;;;;;;5034023;28;20017;-64
2022/11/25 03:14:36;;;;;;;9.48;2.60;;;;;;;;;;5034947;28;20040;-64
2022/11/25 03:17:01;;;;;;;11.93;3.85;;;;;;;;;;5048288;28;20013;-65
2022/11/25 03:19:26;;;;;;;6.07;2.70;;;;;;;;;;5036034;28;20472;-65
2022/11/25 03:21:52;;;;;;;12.95;2.58;;;;;;;;;;5039470;28;20669;-66
2022/11/25 03:24:17;;;;;;;9.55;2.47;;;;;;;;;;5035703;28;20032;-65
2022/11/25 03:26:42;;;;;;;15.23;3.20;;;;;;;;;;5051533;28;20063;-65
2022/11/25 03:29:07;;;;;;;6.20;2.27;;;;;;;;;;5051843;28;20025;-65
2022/11/25 03:31:32;;;;;;;5.82;2.25;;;;;;;;;;5043331;28;20272;-66
2022/11/25 03:33:58;;;;;;;5.32;1.75;;;;;;;;;;5032649;28;20025;-66
2022/11/25 03:36:23;;;;;;;10.40;2.17;;;;;;;;;;5033468;28;20036;-66
2022/11/25 03:38:48;;;;;;;6.37;2.33;;;;;;;;;;5035787;28;20275;-66
2022/11/25 03:41:13;;;;;;;5.80;2.33;;;;;;;;;;5044819;28;20271;-66
2022/11/25 03:43:39;;;;;;;7.22;2.83;;;;;;;;;;5033069;28;20088;-66
2022/11/25 03:46:04;;;;;;;5.68;2.55;;;;;;;;;;5043723;28;20126;-66
2022/11/25 03:48:29;;;;;;;9.57;2.95;;;;;;;;;;5051622;28;20032;-66
2022/11/25 03:50:54;;;;;;;9.25;2.88;;;;;;;;;;5039783;28;20026;-66
2022/11/25 03:53:20;;;;;;;9.00;2.80;;;;;;;;;;5032900;28;20037;-65
2022/11/25 03:55:46;;;;;;;8.18;3.15;;;;;;;;;;5033381;28;20030;-65
2022/11/25 03:58:11;;;;;;;10.68;2.97;;;;;;;;;;5034536;28;20028;-65
2022/11/25 04:00:37;;;;;;;10.30;3.72;;;;;;;;;;5037650;28;20022;-65
2022/11/25 04:03:02;;;;;;;10.52;3.00;;;;;;;;;;5038026;28;20053;-66
2022/11/25 04:05:27;;;;;;;9.82;2.75;;;;;;;;;;5037136;28;20100;-65
2022/11/25 04:07:53;;;;;;;9.32;3.20;;;;;;;;;;5037895;28;20022;-66
2022/11/25 04:10:18;;;;;;;11.15;3.35;;;;;;;;;;5037028;28;20025;-65
2022/11/25 04:12:46;;;;;;;8.27;3.60;;;;;;;;;;5041954;28;20020;-65
2022/11/25 04:15:12;;;;;;;9.43;3.03;;;;;;;;;;5045264;28;20282;-65
2022/11/25 04:17:37;;;;;;;11.90;3.20;;;;;;;;;;5037716;28;20434;-65
2022/11/25 04:20:03;;;;;;;9.07;3.30;;;;;;;;;;5036095;28;20025;-65
2022/11/25 04:22:28;;;;;;;15.55;3.38;;;;;;;;;;5037997;28;20021;-65
2022/11/25 04:24:53;;;;;;;9.13;2.63;;;;;;;;;;5041321;28;20033;-65
2022/11/25 04:27:18;;;;;;;9.63;2.90;;;;;;;;;;5051590;28;20017;-65
2022/11/25 04:29:43;;;;;;;10.68;2.70;;;;;;;;;;5034816;28;20286;-65
2022/11/25 04:32:09;;;;;;;8.30;2.78;;;;;;;;;;5038404;28;20148;-65
2022/11/25 04:34:34;;;;;;;7.07;2.87;;;;;;;;;;5045038;28;20056;-65
2022/11/25 04:36:59;;;;;;;9.77;2.90;;;;;;;;;;5041069;28;20306;-65
2022/11/25 04:39:24;;;;;;;7.93;2.97;;;;;;;;;;5036699;28;20033;-65
2022/11/25 04:42:30;;;;;;;10.63;3.03;;;;;;;;;;5049203;28;20100;-65
2022/11/25 04:44:35;;;;;;;7.68;2.88;;;;;;;;;;5047668;28;20045;-65
2022/11/25 04:47:00;;;;;;;9.37;2.53;;;;;;;;;;5051481;28;20147;-65
2022/11/25 04:49:25;;;;;;;14.00;3.97;;;;;;;;;;5035732;28;20366;-65
2022/11/25 04:51:50;;;;;;;10.90;3.20;;;;;;;;;;5048318;28;20315;-65
2022/11/25 04:54:16;;;;;;;13.93;3.35;;;;;;;;;;5035108;28;20028;-65
2022/11/25 04:56:41;;;;;;;10.43;3.50;;;;;;;;;;5035596;28;20029;-65
2022/11/25 05:01:51;;;;;;;;;;;;;;;;;;5043419;28;20267;-65
2022/11/25 05:04:16;;;;;;;11.13;3.38;;;;;;;;;;5052897;28;19912;-65
2022/11/25 05:06:41;;;;;;;13.85;4.00;;;;;;;;;;5052940;28;20359;-65
2022/11/25 05:09:06;;;;;;;9.48;3.22;;;;;;;;;;5052461;28;20047;-65
2022/11/25 05:11:31;;;;;;;9.38;3.38;;;;;;;;;;5049450;28;20045;-65
2022/11/25 05:13:57;;;;;;;14.52;3.92;;;;;;;;;;5050608;28;20024;-65
2022/11/25 05:16:22;;;;;;;10.15;3.08;;;;;;;;;;5049626;28;20021;-65
2022/11/25 05:18:47;;;;;;;9.40;3.97;;;;;;;;;;5052529;28;20036;-64
2022/11/25 05:21:12;;;;;;;16.05;4.78;;;;;;;;;;5053458;28;20081;-65
2022/11/25 05:23:38;;;;;;;10.87;3.77;;;;;;;;;;5048774;28;20431;-64
2022/11/25 05:26:03;;;;;;;15.57;4.43;;;;;;;;;;5051106;28;20832;-64
2022/11/25 05:28:29;;;;;;;11.48;4.13;;;;;;;;;;5042044;28;20298;-65
2022/11/25 05:30:54;;;;;;;11.80;4.28;;;;;;;;;;5023926;28;20127;-65
2022/11/25 05:33:19;;;;;;;11.98;4.32;;;;;;;;;;5033332;28;20014;-64
2022/11/25 05:35:52;;;;;;;11.25;4.38;;;;;;;;;;5034682;28;20028;-64
2022/11/25 05:38:18;;;;;;;12.63;4.40;;;;;;;;;;5047484;28;20021;-64
2022/11/25 05:40:43;;;;;;;12.75;3.65;;;;;;;;;;5046939;28;20032;-65
2022/11/25 05:43:08;;;;;;;11.48;4.50;;;;;;;;;;5050309;28;20040;-64
2022/11/25 05:45:33;;;;;;;13.23;4.50;;;;;;;;;;5053776;28;20037;-64
2022/11/25 05:47:58;;;;;;;14.07;5.07;;;;;;;;;;5052879;28;20528;-64
2022/11/25 05:50:24;;;;;;;14.43;4.57;;;;;;;;;;5053374;28;20036;-64
2022/11/25 05:52:49;;;;;;;20.50;4.20;;;;;;;;;;5052547;28;20021;-64
2022/11/25 05:55:14;;;;;;;11.52;4.78;;;;;;;;;;5053410;28;20029;-64
2022/11/25 05:57:39;;;;;;;14.67;4.00;;;;;;;;;;5052480;28;20356;-65
2022/11/25 06:00:05;;;;;;;13.43;4.73;;;;;;;;;;5052912;28;20634;-65
2022/11/25 06:02:30;;;;;;;13.23;5.00;;;;;;;;;;5042963;28;20689;-65
2022/11/25 06:04:55;;;;;;;20.03;4.97;;;;;;;;;;5046682;28;20020;-64
2022/11/25 06:07:21;;;;;;;17.57;4.83;;;;;;;;;;5049609;28;20284;-64
2022/11/25 06:09:46;;;;;;;9.68;4.25;;;;;;;;;;5052401;28;20405;-64
2022/11/25 06:12:11;;;;;;;13.70;3.92;;;;;;;;;;5043160;28;20028;-65
2022/11/25 06:14:36;;;;;;;18.73;4.73;;;;;;;;;;5051283;28;20371;-64
2022/11/25 06:17:01;;;;;;;11.27;5.40;;;;;;;;;;5043166;28;20626;-64
2022/11/25 06:19:27;;;;;;;16.50;4.85;;;;;;;;;;5043372;28;20406;-65
2022/11/25 06:21:52;;;;;;;17.92;5.40;;;;;;;;;;5043173;28;20031;-65
2022/11/25 06:24:17;;;;;;;10.13;4.13;;;;;;;;;;5042982;28;20018;-64
2022/11/25 06:26:43;;;;;;;11.60;4.82;;;;;;;;;;5035083;28;20021;-64
2022/11/25 06:29:08;;;;;;;11.63;4.90;;;;;;;;;;5032628;28;20009;-64
2022/11/25 06:31:33;;;;;;;17.60;5.25;;;;;;;;;;5036286;28;20365;-65
2022/11/25 06:33:58;;;;;;;24.55;5.20;;;;;;;;;;5036834;28;20024;-65
2022/11/25 06:36:24;;;;;;;9.02;4.63;;;;;;;;;;5035757;28;20649;-65
2022/11/25 06:38:50;;;;;;;10.48;4.55;;;;;;;;;;5033015;28;20029;-65
2022/11/25 06:41:16;;;;;;;18.13;4.90;;;;;;;;;;5034199;28;20075;-65
2022/11/25 06:43:41;;;;;;;9.68;4.03;;;;;;;;;;5036503;28;20120;-65
2022/11/25 06:46:07;;;;;;;16.90;4.32;;;;;;;;;;5033179;28;20030;-65
2022/11/25 06:48:33;;;;;;;19.27;5.10;;;;;;;;;;5034807;28;20028;-65
2022/11/25 06:50:59;;;;;;;12.05;4.72;;;;;;;;;;5035608;28;20022;-65
2022/11/25 06:53:25;;;;;;;11.45;5.15;;;;;;;;;;5034824;28;20469;-65
2022/11/25 06:56:00;;;;;;;14.65;4.65;;;;;;;;;;5036843;28;20024;-65
2022/11/25 06:58:25;;;;;;;17.00;4.45;;;;;;;;;;5040753;28;20024;-65
2022/11/25 07:00:51;;;;;;;12.20;5.07;;;;;;;;;;5034786;28;20022;-67
2022/11/25 07:03:16;;;;;;;12.88;5.03;;;;;;;;;;5038797;28;20302;-65
2022/11/25 07:05:41;;;;;;;16.00;5.00;;;;;;;;;;5031989;28;20033;-65
2022/11/25 07:08:06;;;;;;;13.35;4.68;;;;;;;;;;5049434;28;20020;-65
2022/11/25 07:10:32;;;;;;;11.95;4.88;;;;;;;;;;5036225;28;20025;-65
2022/11/25 07:12:58;;;;;;;15.18;4.63;;;;;;;;;;5051470;28;20083;-65
2022/11/25 07:15:23;;;;;;;9.57;4.90;;;;;;;;;;5052195;28;20033;-65
2022/11/25 07:17:48;;;;;;;13.63;5.30;;;;;;;;;;5049265;28;20083;-65
2022/11/25 07:20:14;;;;;;;10.73;5.43;;;;;;;;;;5050819;28;20470;-65
2022/11/25 07:22:39;;;;;;;12.53;4.23;;;;;;;;;;5049603;28;20283;-65
2022/11/25 07:25:04;;;;;;;11.18;4.93;;;;;;;;;;5051963;28;20288;-65
2022/11/25 07:27:29;;;;;;;11.57;5.00;;;;;;;;;;5051799;28;20395;-65
2022/11/25 07:29:55;;;;;;;14.07;6.03;;;;;;;;;;5051942;28;20024;-65
2022/11/25 07:32:20;;;;;;;13.23;5.45;;;;;;;;;;5052147;28;20406;-65
2022/11/25 07:34:48;;;;;;;25.80;5.35;;;;;;;;;;5038327;28;20602;-65
2022/11/25 07:37:13;;;;;;;15.48;4.80;;;;;;;;;;5051655;28;20470;-65
2022/11/25 07:39:39;;;;;;;17.65;5.40;;;;;;;;;;5044669;28;20025;-67
2022/11/25 07:42:04;;;;;;;18.15;6.30;;;;;;;;;;5041605;28;20016;-65
2022/11/25 07:44:29;;;;;;;19.27;6.30;;;;;;;;;;5034396;28;20792;-65
2022/11/25 07:46:54;;;;;;;12.47;5.60;;;;;;;;;;5033868;28;20364;-65
2022/11/25 07:49:20;;;;;;;23.88;5.85;;;;;;;;;;5035617;28;20658;-65
2022/11/25 07:51:50;;;;;;;15.38;5.32;;;;;;;;;;5036700;28;20025;-65
2022/11/25 07:54:15;;;;;;;10.93;4.40;;;;;;;;;;5042003;28;20533;-65
2022/11/25 07:56:42;;;;;;;14.52;6.20;;;;;;;;;;5043811;28;20029;-65
2022/11/25 07:59:10;;;;;;;18.42;5.28;;;;;;;;;;5031991;28;20032;-65
2022/11/25 08:01:35;;;;;;;14.10;6.30;;;;;;;;;;5031532;28;20025;-65
2022/11/25 08:04:00;;;;;;;10.10;5.85;;;;;;;;;;5038570;28;20075;-65
2022/11/25 08:06:27;;;;;;;17.60;6.65;;;;;;;;;;5048636;28;20033;-65
2022/11/25 08:08:54;;;;;;;14.45;6.00;;;;;;;;;;5050067;28;20029;-65
2022/11/25 08:11:37;;;;;;;16.40;6.88;;;;;;;;;;5042314;28;20013;-66
2022/11/25 08:14:03;;;;;;;11.35;5.32;;;;;;;;;;5046718;28;20049;-65
2022/11/25 08:16:30;;;;;;;11.70;6.03;;;;;;;;;;5043604;28;20052;-65
2022/11/25 08:18:56;;;;;;;25.75;7.40;;;;;;;;;;5035167;28;20086;-65
2022/11/25 08:21:21;;;;;;;21.73;6.28;;;;;;;;;;5041254;28;20121;-65
2022/11/25 08:23:47;;;;;;;19.48;6.97;;;;;;;;;;5043021;28;20115;-65
2022/11/25 08:26:20;;;;;;;18.88;7.25;;;;;;;;;;5051664;28;20060;-65
2022/11/25 08:28:46;;;;;;;20.73;6.85;;;;;;;;;;5051389;28;20032;-65
2022/11/25 08:31:15;;;;;;;22.02;6.10;;;;;;;;;;5041670;28;20086;-65
2022/11/25 08:33:41;;;;;;;13.95;6.57;;;;;;;;;;5041018;28;20017;-65
2022/11/25 08:36:07;;;;;;;20.92;6.53;;;;;;;;;;5036951;28;20430;-65
2022/11/25 08:38:32;;;;;;;15.95;7.57;;;;;;;;;;5035325;28;20023;-65
2022/11/25 08:40:58;;;;;;;23.92;7.05;;;;;;;;;;5043147;28;20021;-64
2022/11/25 08:43:24;;;;;;;24.98;7.28;;;;;;;;;;5033885;28;20395;-65
2022/11/25 08:45:49;;;;;;;15.23;6.25;;;;;;;;;;5050370;28;20024;-65
2022/11/25 08:48:15;;;;;;;15.55;6.55;;;;;;;;;;5039306;28;20010;-65
2022/11/25 08:50:43;;;;;;;19.98;6.70;;;;;;;;;;5050736;28;20134;-65
2022/11/25 08:53:09;;;;;;;19.65;7.82;;;;;;;;;;5039581;28;20028;-65
2022/11/25 08:55:36;;;;;;;29.45;8.07;;;;;;;;;;5057470;28;20442;-65
2022/11/25 08:58:01;;;;;;;17.73;6.38;;;;;;;;;;5039410;28;20092;-65
2022/11/25 09:00:26;;;;;;;20.00;7.90;;;;;;;;;;5041921;28;20113;-65
2022/11/25 09:02:52;;;;;;;19.95;7.75;;;;;;;;;;5035606;28;20027;-65
2022/11/25 09:05:17;;;;;;;28.10;10.93;;;;;;;;;;5050364;28;20021;-66
2022/11/25 09:07:42;;;;;;;23.00;8.43;;;;;;;;;;5039511;28;20022;-65
2022/11/25 09:10:09;;;;;;;27.80;7.82;;;;;;;;;;5042170;28;20100;-65
2022/11/25 09:12:35;;;;;;;19.50;7.38;;;;;;;;;;5039000;28;20029;-65
2022/11/25 09:15:00;;;;;;;22.95;7.88;;;;;;;;;;5042333;28;20013;-65
2022/11/25 09:17:26;;;;;;;17.08;7.97;;;;;;;;;;5040427;28;20537;-66
2022/11/25 09:19:51;;;;;;;31.50;8.48;;;;;;;;;;5051613;28;20024;-65
2022/11/25 09:22:17;;;;;;;25.70;7.65;;;;;;;;;;5040691;28;20053;-66
2022/11/25 09:24:44;;;;;;;16.73;7.10;;;;;;;;;;5042095;28;20035;-65
2022/11/25 09:27:09;;;;;;;15.88;6.82;;;;;;;;;;5042591;28;20116;-66
2022/11/25 09:29:35;;;;;;;17.42;7.28;;;;;;;;;;5047328;28;20064;-65
2022/11/25 09:32:00;;;;;;;26.15;7.28;;;;;;;;;;5034041;28;20029;-65
2022/11/25 09:34:25;;;;;;;17.98;6.93;;;;;;;;;;5050979;28;20016;-66
2022/11/25 09:36:50;;;;;;;22.40;6.97;;;;;;;;;;5046887;28;20028;-66
2022/11/25 09:39:16;;;;;;;14.93;6.68;;;;;;;;;;5053052;28;20268;-66
2022/11/25 09:47:34;;;;;;;14.30;7.05;;;;;;;;;;5031541;28;20402;-66
2022/11/25 09:50:08;;;;;;;20.55;7.28;;;;;;;;;;5046947;28;20024;-66
2022/11/25 09:52:46;;;;;;;14.80;7.18;;;;;;;;;;5042556;28;20048;-66
2022/11/25 09:55:16;;;;;;;18.75;6.97;;;;;;;;;;5037629;28;20025;-66
2022/11/25 09:58:11;;;;;;;16.73;7.20;;;;;;;;;;5037303;28;20019;-66
2022/11/25 10:00:39;;;;;;;18.13;5.45;;;;;;;;;;4990844;28;20042;-66
2022/11/25 10:03:11;;;;;;;21.33;7.00;;;;;;;;;;5037884;28;20029;-67
2022/11/25 10:05:37;;;;;;;12.02;5.80;;;;;;;;;;5040608;28;20104;-66
2022/11/25 10:08:08;;;;;;;9.10;5.43;;;;;;;;;;5044775;28;20166;-67
2022/11/25 10:10:40;;;;;;;16.45;5.75;;;;;;;;;;5039786;28;20141;-67
2022/11/25 10:13:13;;;;;;;16.92;4.63;;;;;;;;;;5043452;28;20450;-67
2022/11/25 10:15:41;;;;;;;15.23;4.90;;;;;;;;;;5034287;28;20586;-66
2022/11/25 10:18:12;;;;;;;14.20;4.80;;;;;;;;;;5033705;28;20017;-66
2022/11/25 10:20:39;;;;;;;16.70;5.25;;;;;;;;;;5036523;28;20029;-67
2022/11/25 10:23:11;;;;;;;15.15;5.40;;;;;;;;;;5039317;28;20029;-67
2022/11/25 10:25:37;;;;;;;15.18;5.22;;;;;;;;;;5044400;28;20027;-67
2022/11/25 10:28:09;;;;;;;15.75;5.60;;;;;;;;;;5038045;28;20052;-67
2022/11/25 10:30:40;;;;;;;24.80;5.75;;;;;;;;;;5036922;28;20114;-67
2022/11/25 10:33:38;;;;;;;16.75;6.00;;;;;;;;;;5038043;28;20472;-67
2022/11/25 10:36:09;;;;;;;14.73;5.50;;;;;;;;;;5002284;28;20029;-67
2022/11/25 10:38:37;;;;;;;12.95;5.25;;;;;;;;;;5035537;28;20037;-66
2022/11/25 10:41:03;;;;;;;15.50;5.22;;;;;;;;;;5035641;28;20097;-67
2022/11/25 10:43:30;;;;;;;13.50;5.57;;;;;;;;;;5046172;28;20128;-67
2022/11/25 10:45:58;;;;;;;16.95;4.35;;;;;;;;;;5048703;28;20480;-67
2022/11/25 10:48:46;;;;;;;11.90;4.65;;;;;;;;;;5044201;28;20036;-67
2022/11/25 10:51:27;;;;;;;14.18;5.35;;;;;;;;;;5033243;28;20427;-67
2022/11/25 10:54:13;;;;;;;14.65;5.25;;;;;;;;;;5036970;28;20036;-67
2022/11/25 10:56:42;;;;;;;16.05;5.03;;;;;;;;;;5040043;28;20043;-67
2022/11/25 10:59:28;;;;;;;13.02;5.05;;;;;;;;;;5037908;28;20029;-67
2022/11/25 11:02:11;;;;;;;15.20;4.85;;;;;;;;;;5044993;28;20040;-67
2022/11/25 11:04:47;;;;;;;15.00;5.28;;;;;;;;;;5039376;28;20483;-67
2022/11/25 11:07:13;;;;;;;13.20;5.07;;;;;;;;;;5034599;28;20026;-67
2022/11/25 11:09:41;;;;;;;16.15;5.50;;;;;;;;;;5048310;28;20032;-67
2022/11/25 11:12:13;;;;;;;17.38;5.18;;;;;;;;;;5035291;28;20021;-68
2022/11/25 11:14:38;;;;;;;10.77;3.63;;;;;;;;;;5037691;28;20021;-67
2022/11/25 11:17:03;;;;;;;17.80;5.25;;;;;;;;;;5037790;28;20028;-68
2022/11/25 11:19:29;;;;;;;11.65;3.90;;;;;;;;;;5026539;28;20026;-68
2022/11/25 11:21:55;;;;;;;10.63;4.50;;;;;;;;;;5039815;28;20028;-67
2022/11/25 11:24:23;;;;;;;12.05;4.25;;;;;;;;;;5041395;28;20037;-68
2022/11/25 11:27:00;;;;;;;13.25;4.60;;;;;;;;;;5042291;28;20108;-68
2022/11/25 11:29:25;;;;;;;10.80;3.60;;;;;;;;;;5043285;28;20411;-68
2022/11/25 11:31:57;;;;;;;9.55;3.97;;;;;;;;;;5046082;28;20101;-67
2022/11/25 11:34:40;;;;;;;13.95;4.32;;;;;;;;;;5040146;28;20033;-67
2022/11/25 11:37:15;;;;;;;10.55;3.55;;;;;;;;;;5037765;28;20112;-68
2022/11/25 11:39:43;;;;;;;7.28;3.13;;;;;;;;;;5040576;28;20515;-67
2022/11/25 11:42:08;;;;;;;11.07;4.22;;;;;;;;;;5041983;28;20096;-67
2022/11/25 11:44:34;;;;;;;9.50;3.77;;;;;;;;;;5045587;28;20025;-67
2022/11/25 11:47:17;;;;;;;9.70;3.27;;;;;;;;;;5037776;28;20801;-67
2022/11/25 11:49:56;;;;;;;10.10;3.08;;;;;;;;;;5051464;28;20267;-68
2022/11/25 11:52:44;;;;;;;10.57;3.72;;;;;;;;;;5044815;28;20037;-68
2022/11/25 11:55:21;;;;;;;7.32;2.60;;;;;;;;;;5047923;28;20122;-68
2022/11/25 11:57:55;;;;;;;6.75;3.22;;;;;;;;;;5039235;28;20017;-67
2022/11/25 12:00:21;;;;;;;5.90;2.50;;;;;;;;;;5045932;28;20168;-68
2022/11/25 12:02:52;;;;;;;10.05;3.00;;;;;;;;;;5048565;28;20112;-68
2022/11/25 12:05:20;;;;;;;9.90;3.53;;;;;;;;;;5044200;28;20033;-68
2022/11/25 12:07:48;;;;;;;9.60;3.25;;;;;;;;;;5046759;28;20029;-67
2022/11/25 12:10:14;;;;;;;8.70;2.85;;;;;;;;;;5042399;28;20021;-68
2022/11/25 12:12:42;;;;;;;9.40;3.13;;;;;;;;;;5046314;28;20096;-68
2022/11/25 12:15:26;;;;;;;6.53;2.83;;;;;;;;;;5048886;28;20275;-68
2022/11/25 12:17:58;;;;;;;6.32;3.22;;;;;;;;;;5046416;28;20075;-67
2022/11/25 12:20:23;;;;;;;6.72;2.95;;;;;;;;;;5039113;28;20494;-67
2022/11/25 12:23:00;;;;;;;8.87;3.10;;;;;;;;;;5052137;28;20029;-68
2022/11/25 12:25:28;;;;;;;9.30;3.17;;;;;;;;;;5053125;28;20295;-68
2022/11/25 12:27:59;;;;;;;10.80;3.35;;;;;;;;;;5054706;28;20075;-67
2022/11/25 12:30:28;;;;;;;10.63;3.75;;;;;;;;;;5049223;28;20079;-68
2022/11/25 12:32:53;;;;;;;4.78;2.17;;;;;;;;;;5048110;28;20024;-67
2022/11/25 12:35:19;;;;;;;7.35;2.72;;;;;;;;;;5042038;28;20056;-67
2022/11/25 12:38:04;;;;;;;9.83;3.50;;;;;;;;;;5043675;28;20033;-68
2022/11/25 12:40:36;;;;;;;6.82;2.53;;;;;;;;;;5045339;28;20311;-68
2022/11/25 12:43:20;;;;;;;11.55;2.80;;;;;;;;;;5045899;28;20032;-68
2022/11/25 12:45:48;;;;;;;9.10;3.28;;;;;;;;;;5050373;28;20048;-68
2022/11/25 12:48:13;;;;;;;10.98;2.80;;;;;;;;;;5041264;28;20190;-68
2022/11/25 12:50:44;;;;;;;7.45;2.90;;;;;;;;;;5038520;28;20530;-68
2022/11/25 12:53:30;;;;;;;13.90;2.97;;;;;;;;;;5033364;28;20049;-68
2022/11/25 12:55:58;;;;;;;5.50;2.55;;;;;;;;;;5041026;28;20022;-68
2022/11/25 12:58:29;;;;;;;8.05;2.65;;;;;;;;;;5055130;28;20025;-68
2022/11/25 13:01:02;;;;;;;9.07;2.80;;;;;;;;;;5037698;28;20043;-67
2022/11/25 13:03:30;;;;;;;8.98;3.03;;;;;;;;;;5037695;28;20075;-67
2022/11/25 13:05:58;;;;;;;9.70;2.85;;;;;;;;;;5038431;28;20074;-67
2022/11/25 13:08:35;;;;;;;6.60;2.83;;;;;;;;;;5033739;28;20901;-67
2022/11/25 13:11:19;;;;;;;8.80;2.50;;;;;;;;;;5039862;28;20024;-67
2022/11/25 13:13:53;;;;;;;5.80;2.60;;;;;;;;;;5054850;28;20067;-68
2022/11/25 13:16:19;;;;;;;;;;;;;;;;;;5036344;28;20017;-67
2022/11/25 13:18:45;;;;;;;6.00;2.47;;;;;;;;;;5041037;28;19916;-68
2022/11/25 13:21:14;;;;;;;10.63;2.17;;;;;;;;;;5020307;28;20025;-67
2022/11/25 13:23:44;;;;;;;4.65;2.20;;;;;;;;;;5036000;28;20029;-69
2022/11/25 13:26:27;;;;;;;7.45;2.30;;;;;;;;;;5036355;28;20053;-68
2022/11/25 13:28:52;;;;;;;5.50;2.67;;;;;;;;;;5034445;28;20498;-67
2022/11/25 13:31:30;;;;;;;6.68;2.13;;;;;;;;;;5040450;28;20013;-67
2022/11/25 13:33:58;;;;;;;9.07;2.42;;;;;;;;;;5045555;28;20356;-68
2022/11/25 13:36:24;;;;;;;5.63;2.25;;;;;;;;;;5051644;28;20028;-68
2022/11/25 13:38:49;;;;;;;15.05;2.20;;;;;;;;;;5048979;28;20021;-68
2022/11/25 13:41:14;;;;;;;9.57;2.97;;;;;;;;;;5053278;28;20029;-68
2022/11/25 13:43:58;;;;;;;8.40;2.42;;;;;;;;;;5052835;28;20362;-68
2022/11/25 13:46:36;;;;;;;7.43;2.17;;;;;;;;;;5053162;28;20092;-68
2022/11/25 13:49:01;;;;;;;6.20;2.92;;;;;;;;;;5046840;28;20052;-67
2022/11/25 13:51:27;;;;;;;6.22;2.30;;;;;;;;;;5049325;28;20064;-67
2022/11/25 13:53:53;;;;;;;8.52;2.85;;;;;;;;;;5046636;28;20017;-67
2022/11/25 13:56:25;;;;;;;7.00;2.47;;;;;;;;;;5035565;28;20029;-67
2022/11/25 13:59:08;;;;;;;7.32;2.38;;;;;;;;;;5051096;28;20021;-67
2022/11/25 14:01:33;;;;;;;6.20;2.65;;;;;;;;;;5042558;28;20100;-68
2022/11/25 14:03:59;;;;;;;7.82;2.65;;;;;;;;;;5041932;28;20112;-68
2022/11/25 14:06:49;;;;;;;7.70;2.70;;;;;;;;;;5042943;28;20021;-68
2022/11/25 14:09:17;;;;;;;10.70;3.45;;;;;;;;;;5041052;28;20496;-69
2022/11/25 14:12:06;;;;;;;9.98;3.25;;;;;;;;;;5048876;28;20025;-68
2022/11/25 14:14:31;;;;;;;6.50;2.50;;;;;;;;;;5030106;28;20132;-68
2022/11/25 14:17:14;;;;;;;6.90;3.00;;;;;;;;;;5050275;28;20151;-67
2022/11/25 14:19:42;;;;;;;6.00;2.50;;;;;;;;;;5050344;28;20279;-68
2022/11/25 14:22:07;;;;;;;6.30;2.45;;;;;;;;;;5052654;28;20463;-67
2022/11/25 14:24:36;;;;;;;7.93;3.03;;;;;;;;;;5046653;28;20017;-68
2022/11/25 14:27:02;;;;;;;7.97;2.90;;;;;;;;;;5039707;28;20263;-67
2022/11/25 14:29:42;;;;;;;5.88;2.47;;;;;;;;;;5033749;28;20495;-68
2022/11/25 14:32:12;;;;;;;6.07;2.80;;;;;;;;;;5033277;28;20026;-68
2022/11/25 14:34:57;;;;;;;7.72;2.90;;;;;;;;;;5049112;28;20024;-68
2022/11/25 14:37:22;;;;;;;12.88;3.53;;;;;;;;;;5040853;28;20108;-68
2022/11/25 14:39:53;;;;;;;20.63;3.73;;;;;;;;;;5038874;28;20112;-69
2022/11/25 14:42:20;;;;;;;10.57;2.78;;;;;;;;;;5046819;28;20308;-71
2022/11/25 14:44:47;;;;;;;8.75;3.05;;;;;;;;;;5045975;28;20029;-69
2022/11/25 14:47:12;;;;;;;8.68;3.15;;;;;;;;;;5042250;28;20017;-67
2022/11/25 14:49:41;;;;;;;13.82;2.78;;;;;;;;;;5043957;28;20024;-68
2022/11/25 14:52:06;;;;;;;5.82;2.50;;;;;;;;;;5050047;28;20062;-68
2022/11/25 14:54:31;;;;;;;10.82;3.15;;;;;;;;;;5050352;28;20073;-68
2022/11/25 14:56:57;;;;;;;11.30;3.47;;;;;;;;;;5047517;28;20021;-68